sensor_id;sensor_type;location;lat;lon;timestamp;temperature;humidity
7496;DHT22;3789;47.064;15.482;2023-06-19T00:02:22;19.80;99.90
7496;DHT22;3789;47.064;15.482;2023-06-19T00:04:54;19.80;99.90
7496;DHT22;3789;47.064;15.482;2023-06-19T00:07:23;19.60;99.90
7496;DHT22;3789;47.064;15.482;2023-06-19T00:09:51;19.30;99.90
7496;DHT22;3789;47.064;15.482;2023-06-19T00:12:22;19.60;99.90
7496;DHT22;3789;47.064;15.482;2023-06-19T00:14:55;19.30;99.90
7496;DHT22;3789;47.064;15.482;2023-06-19T00:17:27;19.10;99.90
7496;DHT22;3789;47.064;15.482;2023-06-19T00:19:56;19.30;99.90
7496;DHT22;3789;47.064;15.482;2023-06-19T00:22:31;19.30;99.90
7496;DHT22;3789;47.064;15.482;2023-06-19T00:25:02;19.10;99.90
7496;DHT22;3789;47.064;15.482;2023-06-19T00:27:31;19.10;99.90
7496;DHT22;3789;47.064;15.482;2023-06-19T00:30:08;19.40;99.90
7496;DHT22;3789;47.064;15.482;2023-06-19T00:32:37;19.20;99.90
7496;DHT22;3789;47.064;15.482;2023-06-19T00:35:18;19.00;99.90
7496;DHT22;3789;47.064;15.482;2023-06-19T00:37:49;19.00;99.90
7496;DHT22;3789;47.064;15.482;2023-06-19T00:40:28;19.20;99.90
7496;DHT22;3789;47.064;15.482;2023-06-19T00:42:59;19.30;99.90
7496;DHT22;3789;47.064;15.482;2023-06-19T00:45:28;19.30;99.90
7496;DHT22;3789;47.064;15.482;2023-06-19T00:48:04;19.30;99.90
7496;DHT22;3789;47.064;15.482;2023-06-19T00:50:46;19.30;99.90
7496;DHT22;3789;47.064;15.482;2023-06-19T00:53:15;19.30;99.90
7496;DHT22;3789;47.064;15.482;2023-06-19T00:55:47;19.20;99.90
7496;DHT22;3789;47.064;15.482;2023-06-19T00:58:20;19.10;99.90
7496;DHT22;3789;47.064;15.482;2023-06-19T01:00:50;19.00;99.90
7496;DHT22;3789;47.064;15.482;2023-06-19T01:03:39;19.00;99.90
7496;DHT22;3789;47.064;15.482;2023-06-19T01:06:23;18.90;99.90
7496;DHT22;3789;47.064;15.482;2023-06-19T01:09:07;18.90;99.90
7496;DHT22;3789;47.064;15.482;2023-06-19T01:12:09;18.80;99.90
7496;DHT22;3789;47.064;15.482;2023-06-19T01:15:02;18.80;99.90
7496;DHT22;3789;47.064;15.482;2023-06-19T01:17:35;18.90;99.90
7496;DHT22;3789;47.064;15.482;2023-06-19T01:20:06;18.90;99.90
7496;DHT22;3789;47.064;15.482;2023-06-19T01:22:44;18.70;99.90
7496;DHT22;3789;47.064;15.482;2023-06-19T01:25:16;18.60;99.90
7496;DHT22;3789;47.064;15.482;2023-06-19T01:27:52;18.80;99.90
7496;DHT22;3789;47.064;15.482;2023-06-19T01:30:22;18.80;99.90
7496;DHT22;3789;47.064;15.482;2023-06-19T01:33:03;18.50;99.90
7496;DHT22;3789;47.064;15.482;2023-06-19T01:36:00;18.40;99.90
7496;DHT22;3789;47.064;15.482;2023-06-19T01:38:34;18.30;99.90
7496;DHT22;3789;47.064;15.482;2023-06-19T01:41:08;18.40;99.90
7496;DHT22;3789;47.064;15.482;2023-06-19T01:43:36;18.60;99.90
7496;DHT22;3789;47.064;15.482;2023-06-19T01:46:09;18.80;99.90
7496;DHT22;3789;47.064;15.482;2023-06-19T01:48:42;18.60;99.90
7496;DHT22;3789;47.064;15.482;2023-06-19T01:51:15;18.60;99.90
7496;DHT22;3789;47.064;15.482;2023-06-19T01:53:45;18.40;99.90
7496;DHT22;3789;47.064;15.482;2023-06-19T01:56:22;18.30;99.90
7496;DHT22;3789;47.064;15.482;2023-06-19T01:58:54;18.50;99.90
7496;DHT22;3789;47.064;15.482;2023-06-19T02:01:24;18.30;99.90
7496;DHT22;3789;47.064;15.482;2023-06-19T02:04:01;18.00;99.90
7496;DHT22;3789;47.064;15.482;2023-06-19T02:06:30;17.90;99.90
7496;DHT22;3789;47.064;15.482;2023-06-19T02:09:10;18.00;99.90
7496;DHT22;3789;47.064;15.482;2023-06-19T02:11:39;18.30;99.90
7496;DHT22;3789;47.064;15.482;2023-06-19T02:14:18;18.50;99.90
7496;DHT22;3789;47.064;15.482;2023-06-19T02:16:49;18.50;99.90
7496;DHT22;3789;47.064;15.482;2023-06-19T02:19:21;18.40;99.90
7496;DHT22;3789;47.064;15.482;2023-06-19T02:21:51;18.50;99.90
7496;DHT22;3789;47.064;15.482;2023-06-19T02:24:19;18.50;99.90
7496;DHT22;3789;47.064;15.482;2023-06-19T02:26:53;18.60;99.90
7496;DHT22;3789;47.064;15.482;2023-06-19T02:29:23;18.40;99.90
7496;DHT22;3789;47.064;15.482;2023-06-19T02:31:53;18.30;99.90
7496;DHT22;3789;47.064;15.482;2023-06-19T02:34:31;18.30;99.90
7496;DHT22;3789;47.064;15.482;2023-06-19T02:37:07;18.30;99.90
7496;DHT22;3789;47.064;15.482;2023-06-19T02:39:37;18.30;99.90
7496;DHT22;3789;47.064;15.482;2023-06-19T02:42:07;18.10;99.90
7496;DHT22;3789;47.064;15.482;2023-06-19T02:44:35;18.10;99.90
7496;DHT22;3789;47.064;15.482;2023-06-19T02:47:06;18.10;99.90
7496;DHT22;3789;47.064;15.482;2023-06-19T02:49:36;18.20;99.90
7496;DHT22;3789;47.064;15.482;2023-06-19T02:52:11;18.10;99.90
7496;DHT22;3789;47.064;15.482;2023-06-19T02:54:43;18.00;99.90
7496;DHT22;3789;47.064;15.482;2023-06-19T02:57:13;18.10;99.90
7496;DHT22;3789;47.064;15.482;2023-06-19T02:59:42;17.80;99.90
7496;DHT22;3789;47.064;15.482;2023-06-19T03:02:11;17.60;99.90
7496;DHT22;3789;47.064;15.482;2023-06-19T03:04:43;17.40;99.90
7496;DHT22;3789;47.064;15.482;2023-06-19T03:07:14;17.40;99.90
7496;DHT22;3789;47.064;15.482;2023-06-19T03:09:48;17.80;99.90
7496;DHT22;3789;47.064;15.482;2023-06-19T03:12:18;17.80;99.90
7496;DHT22;3789;47.064;15.482;2023-06-19T03:14:54;17.60;99.90
7496;DHT22;3789;47.064;15.482;2023-06-19T03:17:27;17.50;99.90
7496;DHT22;3789;47.064;15.482;2023-06-19T03:20:01;17.60;99.90
7496;DHT22;3789;47.064;15.482;2023-06-19T03:22:31;17.80;99.90
7496;DHT22;3789;47.064;15.482;2023-06-19T03:25:03;17.90;99.90
7496;DHT22;3789;47.064;15.482;2023-06-19T03:27:33;17.70;99.90
7496;DHT22;3789;47.064;15.482;2023-06-19T03:30:05;17.40;99.90
7496;DHT22;3789;47.064;15.482;2023-06-19T03:32:34;17.30;99.90
7496;DHT22;3789;47.064;15.482;2023-06-19T03:35:04;17.30;99.90
7496;DHT22;3789;47.064;15.482;2023-06-19T03:37:36;17.30;99.90
7496;DHT22;3789;47.064;15.482;2023-06-19T03:40:07;17.40;99.90
7496;DHT22;3789;47.064;15.482;2023-06-19T03:42:59;17.50;99.90
7496;DHT22;3789;47.064;15.482;2023-06-19T03:45:28;17.80;99.90
7496;DHT22;3789;47.064;15.482;2023-06-19T03:48:00;18.10;99.90
7496;DHT22;3789;47.064;15.482;2023-06-19T03:50:31;18.30;99.90
7496;DHT22;3789;47.064;15.482;2023-06-19T03:53:02;18.60;99.90
7496;DHT22;3789;47.064;15.482;2023-06-19T03:55:43;18.70;99.90
7496;DHT22;3789;47.064;15.482;2023-06-19T03:58:24;18.90;99.90
7496;DHT22;3789;47.064;15.482;2023-06-19T04:00:52;18.90;99.90
7496;DHT22;3789;47.064;15.482;2023-06-19T04:03:21;19.00;99.90
7496;DHT22;3789;47.064;15.482;2023-06-19T04:05:51;19.10;99.90
7496;DHT22;3789;47.064;15.482;2023-06-19T04:08:22;19.10;99.90
7496;DHT22;3789;47.064;15.482;2023-06-19T04:10:59;19.00;99.90
7496;DHT22;3789;47.064;15.482;2023-06-19T04:13:37;19.00;99.90
7496;DHT22;3789;47.064;15.482;2023-06-19T04:16:07;18.90;99.90
7496;DHT22;3789;47.064;15.482;2023-06-19T04:18:39;18.80;99.90
7496;DHT22;3789;47.064;15.482;2023-06-19T04:21:09;19.20;99.90
7496;DHT22;3789;47.064;15.482;2023-06-19T04:23:37;19.30;99.90
7496;DHT22;3789;47.064;15.482;2023-06-19T04:26:08;19.20;99.90
7496;DHT22;3789;47.064;15.482;2023-06-19T04:28:36;19.10;99.90
7496;DHT22;3789;47.064;15.482;2023-06-19T04:31:07;19.40;99.90
7496;DHT22;3789;47.064;15.482;2023-06-19T04:33:38;19.40;99.90
7496;DHT22;3789;47.064;15.482;2023-06-19T04:36:13;19.30;99.90
7496;DHT22;3789;47.064;15.482;2023-06-19T04:38:48;19.30;99.90
7496;DHT22;3789;47.064;15.482;2023-06-19T04:41:23;19.60;99.90
7496;DHT22;3789;47.064;15.482;2023-06-19T04:43:52;19.50;99.90
7496;DHT22;3789;47.064;15.482;2023-06-19T04:46:21;19.60;99.90
7496;DHT22;3789;47.064;15.482;2023-06-19T04:48:53;19.70;99.90
7496;DHT22;3789;47.064;15.482;2023-06-19T04:51:28;19.90;99.90
7496;DHT22;3789;47.064;15.482;2023-06-19T04:54:00;20.00;99.90
7496;DHT22;3789;47.064;15.482;2023-06-19T04:56:37;19.90;99.90
7496;DHT22;3789;47.064;15.482;2023-06-19T04:59:10;19.70;99.90
7496;DHT22;3789;47.064;15.482;2023-06-19T05:01:41;19.60;99.90
7496;DHT22;3789;47.064;15.482;2023-06-19T05:04:13;20.00;99.90
7496;DHT22;3789;47.064;15.482;2023-06-19T05:06:45;20.50;99.90
7496;DHT22;3789;47.064;15.482;2023-06-19T05:09:21;20.70;99.90
7496;DHT22;3789;47.064;15.482;2023-06-19T05:11:51;20.80;99.90
7496;DHT22;3789;47.064;15.482;2023-06-19T05:14:19;20.80;99.90
7496;DHT22;3789;47.064;15.482;2023-06-19T05:16:47;20.60;99.90
7496;DHT22;3789;47.064;15.482;2023-06-19T05:19:20;20.60;99.90
7496;DHT22;3789;47.064;15.482;2023-06-19T05:22:02;20.60;99.90
7496;DHT22;3789;47.064;15.482;2023-06-19T05:24:32;20.60;99.90
7496;DHT22;3789;47.064;15.482;2023-06-19T05:27:03;20.80;99.90
7496;DHT22;3789;47.064;15.482;2023-06-19T05:29:37;20.70;99.90
7496;DHT22;3789;47.064;15.482;2023-06-19T05:32:06;20.60;99.90
7496;DHT22;3789;47.064;15.482;2023-06-19T05:34:44;20.60;99.90
7496;DHT22;3789;47.064;15.482;2023-06-19T05:37:16;20.90;99.90
7496;DHT22;3789;47.064;15.482;2023-06-19T05:39:48;21.40;99.90
7496;DHT22;3789;47.064;15.482;2023-06-19T05:42:18;21.60;99.90
7496;DHT22;3789;47.064;15.482;2023-06-19T05:44:47;21.70;99.90
7496;DHT22;3789;47.064;15.482;2023-06-19T05:47:25;21.70;99.90
7496;DHT22;3789;47.064;15.482;2023-06-19T05:49:57;22.10;99.90
7496;DHT22;3789;47.064;15.482;2023-06-19T05:52:28;22.10;99.90
7496;DHT22;3789;47.064;15.482;2023-06-19T05:55:04;22.20;99.90
7496;DHT22;3789;47.064;15.482;2023-06-19T05:57:34;22.20;99.90
7496;DHT22;3789;47.064;15.482;2023-06-19T06:00:06;22.50;99.90
7496;DHT22;3789;47.064;15.482;2023-06-19T06:02:41;22.90;99.90
7496;DHT22;3789;47.064;15.482;2023-06-19T06:05:21;23.20;99.90
7496;DHT22;3789;47.064;15.482;2023-06-19T06:07:50;23.10;99.90
7496;DHT22;3789;47.064;15.482;2023-06-19T06:10:22;23.20;99.90
7496;DHT22;3789;47.064;15.482;2023-06-19T06:12:52;23.50;99.90
7496;DHT22;3789;47.064;15.482;2023-06-19T06:15:21;23.40;99.90
7496;DHT22;3789;47.064;15.482;2023-06-19T06:17:50;23.20;99.90
7496;DHT22;3789;47.064;15.482;2023-06-19T06:20:21;23.20;99.90
7496;DHT22;3789;47.064;15.482;2023-06-19T06:22:53;23.20;99.90
7496;DHT22;3789;47.064;15.482;2023-06-19T06:25:22;23.30;99.90
7496;DHT22;3789;47.064;15.482;2023-06-19T06:27:51;23.50;99.90
7496;DHT22;3789;47.064;15.482;2023-06-19T06:30:22;24.00;99.90
7496;DHT22;3789;47.064;15.482;2023-06-19T06:32:57;24.20;99.90
7496;DHT22;3789;47.064;15.482;2023-06-19T06:35:31;24.60;99.90
7496;DHT22;3789;47.064;15.482;2023-06-19T06:38:01;24.60;99.90
7496;DHT22;3789;47.064;15.482;2023-06-19T06:40:31;25.00;99.90
7496;DHT22;3789;47.064;15.482;2023-06-19T06:43:00;25.10;99.90
7496;DHT22;3789;47.064;15.482;2023-06-19T06:45:29;25.10;99.90
7496;DHT22;3789;47.064;15.482;2023-06-19T06:47:59;24.90;99.90
7496;DHT22;3789;47.064;15.482;2023-06-19T06:50:31;24.90;99.90
7496;DHT22;3789;47.064;15.482;2023-06-19T06:53:08;25.40;99.90
7496;DHT22;3789;47.064;15.482;2023-06-19T06:55:37;25.00;99.90
7496;DHT22;3789;47.064;15.482;2023-06-19T06:58:06;25.00;99.90
7496;DHT22;3789;47.064;15.482;2023-06-19T07:00:36;25.10;99.90
7496;DHT22;3789;47.064;15.482;2023-06-19T07:03:06;25.20;99.90
7496;DHT22;3789;47.064;15.482;2023-06-19T07:05:36;25.60;99.90
7496;DHT22;3789;47.064;15.482;2023-06-19T07:08:06;25.60;99.90
7496;DHT22;3789;47.064;15.482;2023-06-19T07:10:35;25.60;99.90
7496;DHT22;3789;47.064;15.482;2023-06-19T07:13:05;26.10;99.90
7496;DHT22;3789;47.064;15.482;2023-06-19T07:15:34;26.30;99.60
7496;DHT22;3789;47.064;15.482;2023-06-19T07:18:09;26.50;99.60
7496;DHT22;3789;47.064;15.482;2023-06-19T07:20:38;26.90;98.70
7496;DHT22;3789;47.064;15.482;2023-06-19T07:23:08;26.90;98.30
7496;DHT22;3789;47.064;15.482;2023-06-19T07:25:45;26.90;98.30
7496;DHT22;3789;47.064;15.482;2023-06-19T07:28:20;27.20;98.00
7496;DHT22;3789;47.064;15.482;2023-06-19T07:30:48;27.10;97.40
7496;DHT22;3789;47.064;15.482;2023-06-19T07:33:20;26.80;97.50
7496;DHT22;3789;47.064;15.482;2023-06-19T07:35:50;26.70;97.80
7496;DHT22;3789;47.064;15.482;2023-06-19T07:38:32;27.00;98.00
7496;DHT22;3789;47.064;15.482;2023-06-19T07:41:04;27.00;97.50
7496;DHT22;3789;47.064;15.482;2023-06-19T07:43:38;27.20;97.60
7496;DHT22;3789;47.064;15.482;2023-06-19T07:46:07;27.10;98.10
7496;DHT22;3789;47.064;15.482;2023-06-19T07:48:36;27.00;97.90
7496;DHT22;3789;47.064;15.482;2023-06-19T07:51:05;27.20;98.80
7496;DHT22;3789;47.064;15.482;2023-06-19T07:53:33;27.30;99.30
7496;DHT22;3789;47.064;15.482;2023-06-19T07:56:01;27.10;98.50
7496;DHT22;3789;47.064;15.482;2023-06-19T07:58:31;27.20;98.30
7496;DHT22;3789;47.064;15.482;2023-06-19T08:00:59;27.10;98.80
7496;DHT22;3789;47.064;15.482;2023-06-19T08:03:32;27.40;99.90
7496;DHT22;3789;47.064;15.482;2023-06-19T08:06:12;27.80;98.60
7496;DHT22;3789;47.064;15.482;2023-06-19T08:08:42;27.70;99.90
7496;DHT22;3789;47.064;15.482;2023-06-19T08:11:20;27.90;99.20
7496;DHT22;3789;47.064;15.482;2023-06-19T08:13:50;27.90;97.60
7496;DHT22;3789;47.064;15.482;2023-06-19T08:16:20;27.90;98.10
7496;DHT22;3789;47.064;15.482;2023-06-19T08:18:48;28.20;97.60
7496;DHT22;3789;47.064;15.482;2023-06-19T08:21:19;28.60;97.90
7496;DHT22;3789;47.064;15.482;2023-06-19T08:23:52;28.60;96.50
7496;DHT22;3789;47.064;15.482;2023-06-19T08:26:22;28.70;96.50
7496;DHT22;3789;47.064;15.482;2023-06-19T08:28:52;28.70;96.70
7496;DHT22;3789;47.064;15.482;2023-06-19T08:31:21;28.50;96.90
7496;DHT22;3789;47.064;15.482;2023-06-19T08:33:58;28.20;97.10
7496;DHT22;3789;47.064;15.482;2023-06-19T08:36:31;27.90;97.70
7496;DHT22;3789;47.064;15.482;2023-06-19T08:39:02;27.50;97.50
7496;DHT22;3789;47.064;15.482;2023-06-19T08:41:38;27.60;98.70
7496;DHT22;3789;47.064;15.482;2023-06-19T08:44:16;28.00;97.60
7496;DHT22;3789;47.064;15.482;2023-06-19T08:46:45;28.30;99.90
7496;DHT22;3789;47.064;15.482;2023-06-19T08:49:23;28.60;98.80
7496;DHT22;3789;47.064;15.482;2023-06-19T08:51:53;28.60;97.00
7496;DHT22;3789;47.064;15.482;2023-06-19T08:54:23;28.70;96.90
7496;DHT22;3789;47.064;15.482;2023-06-19T08:56:53;28.50;96.80
7496;DHT22;3789;47.064;15.482;2023-06-19T08:59:26;28.40;97.10
7496;DHT22;3789;47.064;15.482;2023-06-19T09:02:00;28.60;98.30
7496;DHT22;3789;47.064;15.482;2023-06-19T09:04:34;28.80;97.50
7496;DHT22;3789;47.064;15.482;2023-06-19T09:07:04;28.80;98.40
7496;DHT22;3789;47.064;15.482;2023-06-19T09:09:43;28.90;96.60
7496;DHT22;3789;47.064;15.482;2023-06-19T09:12:16;28.90;97.60
7496;DHT22;3789;47.064;15.482;2023-06-19T09:14:48;28.90;97.40
7496;DHT22;3789;47.064;15.482;2023-06-19T09:17:24;29.10;96.50
7496;DHT22;3789;47.064;15.482;2023-06-19T09:19:54;29.30;97.00
